sensor_id;sensor_type;location;lat;lon;timestamp;P1;durP1;ratioP1;P2;durP2;ratioP2
41903;SDS011;27586;51.124;4.182;2022-12-07T00:03:38;23.10;;;16.80;;
41903;SDS011;27586;51.124;4.182;2022-12-07T00:06:05;25.35;;;16.67;;
41903;SDS011;27586;51.124;4.182;2022-12-07T00:08:33;21.20;;;16.40;;
41903;SDS011;27586;51.124;4.182;2022-12-07T00:11:03;21.70;;;15.55;;
41903;SDS011;27586;51.124;4.182;2022-12-07T00:13:33;23.08;;;16.27;;
41903;SDS011;27586;51.124;4.182;2022-12-07T00:16:01;19.83;;;14.93;;
41903;SDS011;27586;51.124;4.182;2022-12-07T00:18:34;25.92;;;15.55;;
41903;SDS011;27586;51.124;4.182;2022-12-07T00:21:01;23.35;;;14.95;;
41903;SDS011;27586;51.124;4.182;2022-12-07T00:23:28;24.45;;;15.30;;
41903;SDS011;27586;51.124;4.182;2022-12-07T00:25:53;20.83;;;15.38;;
41903;SDS011;27586;51.124;4.182;2022-12-07T00:28:19;24.95;;;16.42;;
41903;SDS011;27586;51.124;4.182;2022-12-07T00:30:45;22.23;;;15.38;;
41903;SDS011;27586;51.124;4.182;2022-12-07T00:33:11;21.58;;;14.90;;
41903;SDS011;27586;51.124;4.182;2022-12-07T00:35:37;29.67;;;16.05;;
41903;SDS011;27586;51.124;4.182;2022-12-07T00:38:02;22.55;;;14.70;;
41903;SDS011;27586;51.124;4.182;2022-12-07T00:40:28;26.02;;;15.50;;
41903;SDS011;27586;51.124;4.182;2022-12-07T00:42:53;21.33;;;15.68;;
41903;SDS011;27586;51.124;4.182;2022-12-07T00:45:19;22.05;;;15.75;;
41903;SDS011;27586;51.124;4.182;2022-12-07T00:47:45;24.77;;;16.17;;
41903;SDS011;27586;51.124;4.182;2022-12-07T00:50:11;29.63;;;17.88;;
41903;SDS011;27586;51.124;4.182;2022-12-07T00:52:36;29.30;;;16.77;;
41903;SDS011;27586;51.124;4.182;2022-12-07T00:55:02;23.60;;;16.73;;
41903;SDS011;27586;51.124;4.182;2022-12-07T00:57:29;23.83;;;16.23;;
41903;SDS011;27586;51.124;4.182;2022-12-07T00:59:56;22.77;;;15.30;;
41903;SDS011;27586;51.124;4.182;2022-12-07T01:02:22;21.63;;;16.23;;
41903;SDS011;27586;51.124;4.182;2022-12-07T01:04:48;27.05;;;16.77;;
41903;SDS011;27586;51.124;4.182;2022-12-07T01:07:14;24.00;;;16.77;;
41903;SDS011;27586;51.124;4.182;2022-12-07T01:09:40;32.05;;;18.25;;
41903;SDS011;27586;51.124;4.182;2022-12-07T01:12:05;29.23;;;17.25;;
41903;SDS011;27586;51.124;4.182;2022-12-07T01:14:31;28.33;;;17.83;;
41903;SDS011;27586;51.124;4.182;2022-12-07T01:16:56;21.45;;;15.70;;
41903;SDS011;27586;51.124;4.182;2022-12-07T01:19:22;26.52;;;16.55;;
41903;SDS011;27586;51.124;4.182;2022-12-07T01:21:48;22.88;;;20.25;;
41903;SDS011;27586;51.124;4.182;2022-12-07T01:24:13;28.25;;;14.40;;
41903;SDS011;27586;51.124;4.182;2022-12-07T01:26:39;26.08;;;14.73;;
41903;SDS011;27586;51.124;4.182;2022-12-07T01:29:05;22.02;;;14.20;;
41903;SDS011;27586;51.124;4.182;2022-12-07T01:31:31;25.95;;;15.38;;
41903;SDS011;27586;51.124;4.182;2022-12-07T01:33:57;23.25;;;15.32;;
41903;SDS011;27586;51.124;4.182;2022-12-07T01:36:28;24.83;;;14.68;;
41903;SDS011;27586;51.124;4.182;2022-12-07T01:38:57;25.15;;;15.02;;
41903;SDS011;27586;51.124;4.182;2022-12-07T01:41:27;25.02;;;15.27;;
41903;SDS011;27586;51.124;4.182;2022-12-07T01:46:42;17.60;;;13.23;;
41903;SDS011;27586;51.124;4.182;2022-12-07T01:49:11;28.75;;;21.52;;
41903;SDS011;27586;51.124;4.182;2022-12-07T01:51:41;19.50;;;17.45;;
41903;SDS011;27586;51.124;4.182;2022-12-07T01:54:09;20.17;;;18.08;;
41903;SDS011;27586;51.124;4.182;2022-12-07T01:56:38;16.52;;;11.57;;
41903;SDS011;27586;51.124;4.182;2022-12-07T01:59:07;18.88;;;11.85;;
41903;SDS011;27586;51.124;4.182;2022-12-07T02:01:33;20.20;;;12.13;;
41903;SDS011;27586;51.124;4.182;2022-12-07T02:03:58;16.88;;;10.88;;
41903;SDS011;27586;51.124;4.182;2022-12-07T02:06:24;25.10;;;11.77;;
41903;SDS011;27586;51.124;4.182;2022-12-07T02:08:51;16.45;;;10.82;;
41903;SDS011;27586;51.124;4.182;2022-12-07T02:11:17;18.55;;;11.18;;
41903;SDS011;27586;51.124;4.182;2022-12-07T02:13:43;17.20;;;11.13;;
41903;SDS011;27586;51.124;4.182;2022-12-07T02:16:14;19.40;;;11.15;;
41903;SDS011;27586;51.124;4.182;2022-12-07T02:18:55;25.25;;;11.85;;
41903;SDS011;27586;51.124;4.182;2022-12-07T02:21:38;21.60;;;11.93;;
41903;SDS011;27586;51.124;4.182;2022-12-07T02:24:14;17.88;;;10.63;;
41903;SDS011;27586;51.124;4.182;2022-12-07T02:29:43;15.75;;;11.55;;
41903;SDS011;27586;51.124;4.182;2022-12-07T02:40:46;17.50;;;11.15;;
41903;SDS011;27586;51.124;4.182;2022-12-07T02:43:23;19.13;;;11.70;;
41903;SDS011;27586;51.124;4.182;2022-12-07T02:45:53;26.88;;;13.00;;
41903;SDS011;27586;51.124;4.182;2022-12-07T02:48:23;22.85;;;12.43;;
41903;SDS011;27586;51.124;4.182;2022-12-07T02:50:53;20.80;;;11.85;;
41903;SDS011;27586;51.124;4.182;2022-12-07T02:53:29;22.15;;;11.32;;
41903;SDS011;27586;51.124;4.182;2022-12-07T02:56:06;17.58;;;11.32;;
41903;SDS011;27586;51.124;4.182;2022-12-07T02:58:50;20.42;;;11.98;;
41903;SDS011;27586;51.124;4.182;2022-12-07T03:01:25;19.20;;;11.60;;
41903;SDS011;27586;51.124;4.182;2022-12-07T03:07:00;21.15;;;12.30;;
41903;SDS011;27586;51.124;4.182;2022-12-07T03:09:39;18.80;;;12.35;;
41903;SDS011;27586;51.124;4.182;2022-12-07T03:12:19;24.05;;;13.50;;
41903;SDS011;27586;51.124;4.182;2022-12-07T03:15:01;18.20;;;11.95;;
41903;SDS011;27586;51.124;4.182;2022-12-07T03:17:36;19.92;;;13.68;;
41903;SDS011;27586;51.124;4.182;2022-12-07T03:20:05;24.52;;;13.35;;
41903;SDS011;27586;51.124;4.182;2022-12-07T03:22:34;25.17;;;13.80;;
41903;SDS011;27586;51.124;4.182;2022-12-07T03:25:04;21.02;;;13.23;;
41903;SDS011;27586;51.124;4.182;2022-12-07T03:27:35;22.08;;;14.07;;
41903;SDS011;27586;51.124;4.182;2022-12-07T03:30:49;22.52;;;13.80;;
41903;SDS011;27586;51.124;4.182;2022-12-07T03:38:30;24.23;;;13.55;;
41903;SDS011;27586;51.124;4.182;2022-12-07T03:41:22;21.45;;;13.68;;
41903;SDS011;27586;51.124;4.182;2022-12-07T03:43:51;22.63;;;13.73;;
41903;SDS011;27586;51.124;4.182;2022-12-07T03:46:20;22.48;;;14.05;;
41903;SDS011;27586;51.124;4.182;2022-12-07T03:49:31;22.50;;;13.65;;
41903;SDS011;27586;51.124;4.182;2022-12-07T03:51:39;21.13;;;14.07;;
41903;SDS011;27586;51.124;4.182;2022-12-07T03:54:11;25.80;;;14.63;;
41903;SDS011;27586;51.124;4.182;2022-12-07T03:56:44;21.98;;;13.02;;
41903;SDS011;27586;51.124;4.182;2022-12-07T03:59:13;19.48;;;12.88;;
41903;SDS011;27586;51.124;4.182;2022-12-07T04:01:41;26.35;;;13.40;;
41903;SDS011;27586;51.124;4.182;2022-12-07T04:04:16;20.55;;;12.65;;
41903;SDS011;27586;51.124;4.182;2022-12-07T04:06:42;24.25;;;11.88;;
41903;SDS011;27586;51.124;4.182;2022-12-07T04:09:08;20.25;;;11.68;;
41903;SDS011;27586;51.124;4.182;2022-12-07T04:11:33;22.33;;;10.70;;
41903;SDS011;27586;51.124;4.182;2022-12-07T04:13:59;19.88;;;16.08;;
41903;SDS011;27586;51.124;4.182;2022-12-07T04:16:43;23.02;;;10.98;;
41903;SDS011;27586;51.124;4.182;2022-12-07T04:19:10;22.38;;;10.77;;
41903;SDS011;27586;51.124;4.182;2022-12-07T04:21:36;21.00;;;10.52;;
41903;SDS011;27586;51.124;4.182;2022-12-07T04:24:02;17.20;;;10.05;;
41903;SDS011;27586;51.124;4.182;2022-12-07T04:26:28;23.38;;;10.10;;
41903;SDS011;27586;51.124;4.182;2022-12-07T04:28:54;20.88;;;9.90;;
41903;SDS011;27586;51.124;4.182;2022-12-07T04:31:20;20.85;;;9.88;;
41903;SDS011;27586;51.124;4.182;2022-12-07T04:33:45;19.00;;;8.88;;
41903;SDS011;27586;51.124;4.182;2022-12-07T04:36:11;19.73;;;9.80;;
41903;SDS011;27586;51.124;4.182;2022-12-07T04:38:37;17.55;;;9.80;;
41903;SDS011;27586;51.124;4.182;2022-12-07T04:41:06;25.50;;;10.65;;
41903;SDS011;27586;51.124;4.182;2022-12-07T04:43:32;19.27;;;9.90;;
41903;SDS011;27586;51.124;4.182;2022-12-07T04:45:58;18.92;;;10.13;;
41903;SDS011;27586;51.124;4.182;2022-12-07T04:48:24;17.90;;;9.50;;
41903;SDS011;27586;51.124;4.182;2022-12-07T04:50:49;16.73;;;9.70;;
41903;SDS011;27586;51.124;4.182;2022-12-07T04:53:15;16.05;;;9.73;;
41903;SDS011;27586;51.124;4.182;2022-12-07T04:55:41;16.65;;;9.70;;
41903;SDS011;27586;51.124;4.182;2022-12-07T04:58:07;17.88;;;10.13;;
41903;SDS011;27586;51.124;4.182;2022-12-07T05:00:32;19.65;;;10.52;;
41903;SDS011;27586;51.124;4.182;2022-12-07T05:02:58;21.20;;;10.93;;
41903;SDS011;27586;51.124;4.182;2022-12-07T05:05:23;26.27;;;12.05;;
41903;SDS011;27586;51.124;4.182;2022-12-07T05:07:49;20.15;;;11.32;;
41903;SDS011;27586;51.124;4.182;2022-12-07T05:10:15;19.38;;;11.13;;
41903;SDS011;27586;51.124;4.182;2022-12-07T05:12:41;19.88;;;10.38;;
41903;SDS011;27586;51.124;4.182;2022-12-07T05:15:07;17.40;;;10.80;;
41903;SDS011;27586;51.124;4.182;2022-12-07T05:17:33;21.20;;;11.70;;
41903;SDS011;27586;51.124;4.182;2022-12-07T05:19:59;14.40;;;10.05;;
41903;SDS011;27586;51.124;4.182;2022-12-07T05:22:24;18.33;;;10.82;;
41903;SDS011;27586;51.124;4.182;2022-12-07T05:24:56;21.35;;;10.38;;
41903;SDS011;27586;51.124;4.182;2022-12-07T05:27:22;16.50;;;9.95;;
41903;SDS011;27586;51.124;4.182;2022-12-07T05:29:49;20.17;;;10.55;;
41903;SDS011;27586;51.124;4.182;2022-12-07T05:32:16;13.98;;;9.45;;
41903;SDS011;27586;51.124;4.182;2022-12-07T05:34:41;16.02;;;10.32;;
41903;SDS011;27586;51.124;4.182;2022-12-07T05:37:10;15.95;;;9.93;;
41903;SDS011;27586;51.124;4.182;2022-12-07T05:39:36;20.00;;;11.30;;
41903;SDS011;27586;51.124;4.182;2022-12-07T05:42:05;24.75;;;12.75;;
41903;SDS011;27586;51.124;4.182;2022-12-07T05:44:37;18.40;;;11.23;;
41903;SDS011;27586;51.124;4.182;2022-12-07T05:47:03;18.95;;;10.77;;
41903;SDS011;27586;51.124;4.182;2022-12-07T05:49:29;29.27;;;12.77;;
41903;SDS011;27586;51.124;4.182;2022-12-07T05:51:54;18.00;;;11.27;;
41903;SDS011;27586;51.124;4.182;2022-12-07T05:54:20;21.48;;;11.13;;
41903;SDS011;27586;51.124;4.182;2022-12-07T05:56:46;19.42;;;11.27;;
41903;SDS011;27586;51.124;4.182;2022-12-07T05:59:11;16.65;;;10.02;;
41903;SDS011;27586;51.124;4.182;2022-12-07T06:01:52;15.40;;;10.15;;
41903;SDS011;27586;51.124;4.182;2022-12-07T06:04:20;17.08;;;9.88;;
41903;SDS011;27586;51.124;4.182;2022-12-07T06:06:47;16.45;;;9.10;;
41903;SDS011;27586;51.124;4.182;2022-12-07T06:09:14;16.70;;;9.63;;
41903;SDS011;27586;51.124;4.182;2022-12-07T06:11:40;17.63;;;9.32;;
41903;SDS011;27586;51.124;4.182;2022-12-07T06:14:24;18.60;;;10.48;;
41903;SDS011;27586;51.124;4.182;2022-12-07T06:16:50;20.75;;;10.52;;
41903;SDS011;27586;51.124;4.182;2022-12-07T06:19:16;18.70;;;9.77;;
41903;SDS011;27586;51.124;4.182;2022-12-07T06:21:41;12.95;;;8.80;;
41903;SDS011;27586;51.124;4.182;2022-12-07T06:24:07;18.60;;;9.45;;
41903;SDS011;27586;51.124;4.182;2022-12-07T06:26:36;22.55;;;9.57;;
41903;SDS011;27586;51.124;4.182;2022-12-07T06:29:02;17.83;;;9.43;;
41903;SDS011;27586;51.124;4.182;2022-12-07T06:31:28;12.98;;;8.68;;
41903;SDS011;27586;51.124;4.182;2022-12-07T06:33:58;17.60;;;9.38;;
41903;SDS011;27586;51.124;4.182;2022-12-07T06:36:30;17.67;;;9.00;;
41903;SDS011;27586;51.124;4.182;2022-12-07T06:38:56;14.63;;;9.60;;
41903;SDS011;27586;51.124;4.182;2022-12-07T06:41:22;22.70;;;13.27;;
41903;SDS011;27586;51.124;4.182;2022-12-07T06:43:48;23.55;;;12.30;;
41903;SDS011;27586;51.124;4.182;2022-12-07T06:46:14;18.95;;;10.93;;
41903;SDS011;27586;51.124;4.182;2022-12-07T06:48:40;16.08;;;9.77;;
41903;SDS011;27586;51.124;4.182;2022-12-07T06:51:06;17.85;;;11.02;;
41903;SDS011;27586;51.124;4.182;2022-12-07T06:53:32;16.52;;;10.15;;
41903;SDS011;27586;51.124;4.182;2022-12-07T06:55:58;13.65;;;9.13;;
41903;SDS011;27586;51.124;4.182;2022-12-07T06:58:23;13.27;;;8.98;;
41903;SDS011;27586;51.124;4.182;2022-12-07T07:00:49;15.32;;;9.05;;
41903;SDS011;27586;51.124;4.182;2022-12-07T07:03:15;18.88;;;8.95;;
41903;SDS011;27586;51.124;4.182;2022-12-07T07:05:44;15.45;;;8.30;;
41903;SDS011;27586;51.124;4.182;2022-12-07T07:08:10;15.75;;;8.27;;
41903;SDS011;27586;51.124;4.182;2022-12-07T07:10:36;15.60;;;7.45;;
41903;SDS011;27586;51.124;4.182;2022-12-07T07:13:03;18.27;;;8.05;;
41903;SDS011;27586;51.124;4.182;2022-12-07T07:15:29;14.43;;;8.00;;
41903;SDS011;27586;51.124;4.182;2022-12-07T07:17:55;12.60;;;7.30;;
41903;SDS011;27586;51.124;4.182;2022-12-07T07:20:20;12.00;;;7.22;;
41903;SDS011;27586;51.124;4.182;2022-12-07T07:22:47;16.35;;;8.13;;
41903;SDS011;27586;51.124;4.182;2022-12-07T07:25:13;14.98;;;7.20;;
41903;SDS011;27586;51.124;4.182;2022-12-07T07:27:39;14.38;;;8.30;;
41903;SDS011;27586;51.124;4.182;2022-12-07T07:30:05;15.20;;;7.65;;
41903;SDS011;27586;51.124;4.182;2022-12-07T07:32:31;17.85;;;7.82;;
41903;SDS011;27586;51.124;4.182;2022-12-07T07:34:57;15.50;;;7.68;;
41903;SDS011;27586;51.124;4.182;2022-12-07T07:37:23;17.52;;;8.40;;
41903;SDS011;27586;51.124;4.182;2022-12-07T07:39:48;17.55;;;8.30;;
41903;SDS011;27586;51.124;4.182;2022-12-07T07:42:14;13.90;;;7.80;;
41903;SDS011;27586;51.124;4.182;2022-12-07T07:44:40;21.88;;;8.82;;
41903;SDS011;27586;51.124;4.182;2022-12-07T07:47:06;17.02;;;8.68;;
41903;SDS011;27586;51.124;4.182;2022-12-07T07:49:31;14.50;;;8.30;;
41903;SDS011;27586;51.124;4.182;2022-12-07T07:51:57;31.92;;;9.55;;
41903;SDS011;27586;51.124;4.182;2022-12-07T07:54:23;21.95;;;9.68;;
41903;SDS011;27586;51.124;4.182;2022-12-07T07:56:48;19.75;;;9.05;;
41903;SDS011;27586;51.124;4.182;2022-12-07T07:59:15;21.92;;;9.45;;
41903;SDS011;27586;51.124;4.182;2022-12-07T08:01:40;25.35;;;10.25;;
41903;SDS011;27586;51.124;4.182;2022-12-07T08:04:06;21.83;;;9.95;;
41903;SDS011;27586;51.124;4.182;2022-12-07T08:06:32;20.10;;;10.25;;
41903;SDS011;27586;51.124;4.182;2022-12-07T08:08:58;19.35;;;9.98;;
41903;SDS011;27586;51.124;4.182;2022-12-07T08:11:24;16.00;;;9.82;;
41903;SDS011;27586;51.124;4.182;2022-12-07T08:13:49;19.30;;;9.50;;
41903;SDS011;27586;51.124;4.182;2022-12-07T08:16:15;18.88;;;9.52;;
41903;SDS011;27586;51.124;4.182;2022-12-07T08:18:41;21.83;;;10.13;;
41903;SDS011;27586;51.124;4.182;2022-12-07T08:21:09;19.38;;;9.02;;
41903;SDS011;27586;51.124;4.182;2022-12-07T08:23:37;16.27;;;9.45;;
41903;SDS011;27586;51.124;4.182;2022-12-07T08:26:04;20.50;;;12.93;;
41903;SDS011;27586;51.124;4.182;2022-12-07T08:28:31;19.00;;;9.70;;
41903;SDS011;27586;51.124;4.182;2022-12-07T08:31:05;15.32;;;8.43;;
41903;SDS011;27586;51.124;4.182;2022-12-07T08:33:32;18.27;;;8.85;;
41903;SDS011;27586;51.124;4.182;2022-12-07T08:36:02;24.08;;;9.13;;
41903;SDS011;27586;51.124;4.182;2022-12-07T08:38:29;19.17;;;8.63;;
41903;SDS011;27586;51.124;4.182;2022-12-07T08:40:57;17.98;;;8.60;;
41903;SDS011;27586;51.124;4.182;2022-12-07T08:43:24;20.95;;;7.63;;
41903;SDS011;27586;51.124;4.182;2022-12-07T08:45:51;26.75;;;8.55;;
41903;SDS011;27586;51.124;4.182;2022-12-07T08:48:45;21.02;;;8.05;;
41903;SDS011;27586;51.124;4.182;2022-12-07T08:51:18;11.77;;;7.10;;
41903;SDS011;27586;51.124;4.182;2022-12-07T08:53:44;13.27;;;6.70;;
41903;SDS011;27586;51.124;4.182;2022-12-07T08:56:14;20.00;;;7.25;;
41903;SDS011;27586;51.124;4.182;2022-12-07T08:58:40;13.02;;;6.93;;
41903;SDS011;27586;51.124;4.182;2022-12-07T09:01:06;14.75;;;6.45;;
41903;SDS011;27586;51.124;4.182;2022-12-07T09:03:32;16.33;;;6.72;;
41903;SDS011;27586;51.124;4.182;2022-12-07T09:05:58;11.60;;;7.13;;
41903;SDS011;27586;51.124;4.182;2022-12-07T09:08:26;18.10;;;7.47;;
41903;SDS011;27586;51.124;4.182;2022-12-07T09:10:56;15.20;;;7.47;;
41903;SDS011;27586;51.124;4.182;2022-12-07T09:13:21;24.00;;;10.10;;
41903;SDS011;27586;51.124;4.182;2022-12-07T09:15:51;22.13;;;10.82;;
41903;SDS011;27586;51.124;4.182;2022-12-07T09:18:16;16.13;;;9.75;;
41903;SDS011;27586;51.124;4.182;2022-12-07T09:20:45;15.70;;;9.88;;
41903;SDS011;27586;51.124;4.182;2022-12-07T09:23:11;17.02;;;8.65;;
41903;SDS011;27586;51.124;4.182;2022-12-07T09:25:36;19.13;;;9.38;;
41903;SDS011;27586;51.124;4.182;2022-12-07T09:28:02;24.38;;;9.23;;
41903;SDS011;27586;51.124;4.182;2022-12-07T09:30:28;16.60;;;8.05;;
41903;SDS011;27586;51.124;4.182;2022-12-07T09:32:54;22.80;;;14.35;;
41903;SDS011;27586;51.124;4.182;2022-12-07T09:35:20;21.52;;;16.10;;
41903;SDS011;27586;51.124;4.182;2022-12-07T09:37:46;16.58;;;12.82;;
41903;SDS011;27586;51.124;4.182;2022-12-07T09:40:12;29.20;;;19.23;;
41903;SDS011;27586;51.124;4.182;2022-12-07T09:42:44;18.98;;;10.50;;
41903;SDS011;27586;51.124;4.182;2022-12-07T09:45:19;20.35;;;10.32;;
41903;SDS011;27586;51.124;4.182;2022-12-07T09:47:51;17.08;;;9.18;;
41903;SDS011;27586;51.124;4.182;2022-12-07T09:50:21;18.98;;;9.00;;
41903;SDS011;27586;51.124;4.182;2022-12-07T09:52:49;26.00;;;9.75;;
41903;SDS011;27586;51.124;4.182;2022-12-07T09:55:21;16.88;;;9.27;;
41903;SDS011;27586;51.124;4.182;2022-12-07T09:57:49;17.23;;;8.80;;
41903;SDS011;27586;51.124;4.182;2022-12-07T10:00:19;13.88;;;9.30;;
41903;SDS011;27586;51.124;4.182;2022-12-07T10:02:51;15.23;;;8.82;;
41903;SDS011;27586;51.124;4.182;2022-12-07T10:05:22;16.95;;;9.45;;
41903;SDS011;27586;51.124;4.182;2022-12-07T10:07:56;14.52;;;9.18;;
41903;SDS011;27586;51.124;4.182;2022-12-07T10:10:31;17.17;;;9.18;;
41903;SDS011;27586;51.124;4.182;2022-12-07T10:13:02;19.15;;;13.23;;
41903;SDS011;27586;51.124;4.182;2022-12-07T10:15:47;23.05;;;9.13;;
41903;SDS011;27586;51.124;4.182;2022-12-07T10:18:32;17.85;;;9.48;;
41903;SDS011;27586;51.124;4.182;2022-12-07T10:21:04;15.57;;;12.00;;
41903;SDS011;27586;51.124;4.182;2022-12-07T10:23:34;19.33;;;12.43;;
41903;SDS011;27586;51.124;4.182;2022-12-07T10:26:17;15.65;;;12.63;;
41903;SDS011;27586;51.124;4.182;2022-12-07T10:28:56;14.68;;;11.95;;
41903;SDS011;27586;51.124;4.182;2022-12-07T10:31:25;16.42;;;12.07;;
41903;SDS011;27586;51.124;4.182;2022-12-07T10:34:01;16.00;;;11.48;;
41903;SDS011;27586;51.124;4.182;2022-12-07T10:36:30;15.15;;;11.25;;
41903;SDS011;27586;51.124;4.182;2022-12-07T10:39:15;16.08;;;10.27;;
41903;SDS011;27586;51.124;4.182;2022-12-07T10:41:54;13.45;;;9.70;;
41903;SDS011;27586;51.124;4.182;2022-12-07T10:44:28;13.43;;;8.55;;
41903;SDS011;27586;51.124;4.182;2022-12-07T10:47:08;12.77;;;8.95;;
41903;SDS011;27586;51.124;4.182;2022-12-07T10:52:48;13.07;;;8.88;;
41903;SDS011;27586;51.124;4.182;2022-12-07T10:58:52;12.18;;;8.00;;
41903;SDS011;27586;51.124;4.182;2022-12-07T11:01:33;10.38;;;5.70;;
41903;SDS011;27586;51.124;4.182;2022-12-07T11:09:47;8.80;;;5.80;;
41903;SDS011;27586;51.124;4.182;2022-12-07T11:12:23;13.30;;;6.38;;
41903;SDS011;27586;51.124;4.182;2022-12-07T11:37:30;7.53;;;5.30;;
41903;SDS011;27586;51.124;4.182;2022-12-07T11:40:08;8.73;;;5.72;;
41903;SDS011;27586;51.124;4.182;2022-12-07T11:43:11;10.05;;;5.95;;
41903;SDS011;27586;51.124;4.182;2022-12-07T11:45:55;9.77;;;6.15;;
41903;SDS011;27586;51.124;4.182;2022-12-07T11:51:49;9.98;;;6.65;;
41903;SDS011;27586;51.124;4.182;2022-12-07T11:54:19;10.35;;;6.65;;
41903;SDS011;27586;51.124;4.182;2022-12-07T11:56:50;7.47;;;6.57;;
41903;SDS011;27586;51.124;4.182;2022-12-07T11:59:21;13.20;;;7.07;;
41903;SDS011;27586;51.124;4.182;2022-12-07T12:02:14;9.23;;;6.25;;
41903;SDS011;27586;51.124;4.182;2022-12-07T12:04:51;9.13;;;6.78;;
41903;SDS011;27586;51.124;4.182;2022-12-07T12:07:23;9.40;;;6.10;;
41903;SDS011;27586;51.124;4.182;2022-12-07T12:09:54;12.38;;;6.63;;
41903;SDS011;27586;51.124;4.182;2022-12-07T12:12:47;8.48;;;5.85;;
41903;SDS011;27586;51.124;4.182;2022-12-07T12:15:47;10.80;;;5.85;;
41903;SDS011;27586;51.124;4.182;2022-12-07T12:18:39;9.40;;;5.28;;
41903;SDS011;27586;51.124;4.182;2022-12-07T12:21:20;8.40;;;4.80;;
41903;SDS011;27586;51.124;4.182;2022-12-07T12:23:59;7.63;;;4.30;;
41903;SDS011;27586;51.124;4.182;2022-12-07T12:26:30;7.93;;;4.47;;
41903;SDS011;27586;51.124;4.182;2022-12-07T12:28:59;9.73;;;4.63;;
41903;SDS011;27586;51.124;4.182;2022-12-07T12:34:01;8.95;;;4.70;;
41903;SDS011;27586;51.124;4.182;2022-12-07T12:47:00;6.18;;;5.03;;
41903;SDS011;27586;51.124;4.182;2022-12-07T12:49:32;7.57;;;5.05;;
41903;SDS011;27586;51.124;4.182;2022-12-07T12:52:02;7.18;;;4.65;;
41903;SDS011;27586;51.124;4.182;2022-12-07T12:54:59;10.77;;;5.60;;
41903;SDS011;27586;51.124;4.182;2022-12-07T13:02:22;10.85;;;5.60;;
41903;SDS011;27586;51.124;4.182;2022-12-07T13:12:59;3.90;;;2.25;;
41903;SDS011;27586;51.124;4.182;2022-12-07T13:18:39;3.95;;;1.88;;
41903;SDS011;27586;51.124;4.182;2022-12-07T13:28:47;3.85;;;1.80;;
41903;SDS011;27586;51.124;4.182;2022-12-07T13:34:00;3.90;;;2.10;;
41903;SDS011;27586;51.124;4.182;2022-12-07T13:36:29;3.72;;;1.73;;
41903;SDS011;27586;51.124;4.182;2022-12-07T13:39:09;2.92;;;1.30;;
41903;SDS011;27586;51.124;4.182;2022-12-07T13:41:56;2.92;;;1.33;;
41903;SDS011;27586;51.124;4.182;2022-12-07T13:44:23;4.07;;;1.40;;
41903;SDS011;27586;51.124;4.182;2022-12-07T13:46:56;2.95;;;1.35;;
41903;SDS011;27586;51.124;4.182;2022-12-07T13:49:32;4.10;;;1.85;;
41903;SDS011;27586;51.124;4.182;2022-12-07T13:52:13;3.92;;;1.58;;
41903;SDS011;27586;51.124;4.182;2022-12-07T13:54:43;4.35;;;1.80;;
41903;SDS011;27586;51.124;4.182;2022-12-07T13:57:29;2.15;;;1.55;;
41903;SDS011;27586;51.124;4.182;2022-12-07T14:00:01;6.15;;;2.00;;
41903;SDS011;27586;51.124;4.182;2022-12-07T14:02:31;3.40;;;1.70;;
41903;SDS011;27586;51.124;4.182;2022-12-07T14:05:09;6.53;;;1.90;;
41903;SDS011;27586;51.124;4.182;2022-12-07T14:10:38;3.35;;;1.70;;
41903;SDS011;27586;51.124;4.182;2022-12-07T14:16:00;5.03;;;2.88;;
41903;SDS011;27586;51.124;4.182;2022-12-07T14:18:35;7.82;;;5.10;;
41903;SDS011;27586;51.124;4.182;2022-12-07T14:23:35;6.43;;;3.08;;
41903;SDS011;27586;51.124;4.182;2022-12-07T14:26:18;7.35;;;3.00;;
41903;SDS011;27586;51.124;4.182;2022-12-07T14:28:45;4.40;;;2.80;;
41903;SDS011;27586;51.124;4.182;2022-12-07T14:31:13;4.65;;;2.75;;
41903;SDS011;27586;51.124;4.182;2022-12-07T14:33:41;4.88;;;2.78;;
41903;SDS011;27586;51.124;4.182;2022-12-07T14:36:10;3.15;;;2.58;;
41903;SDS011;27586;51.124;4.182;2022-12-07T14:38:37;4.60;;;2.35;;
41903;SDS011;27586;51.124;4.182;2022-12-07T14:41:03;4.90;;;2.50;;
41903;SDS011;27586;51.124;4.182;2022-12-07T14:43:49;5.30;;;2.38;;
41903;SDS011;27586;51.124;4.182;2022-12-07T14:46:15;6.95;;;2.72;;
41903;SDS011;27586;51.124;4.182;2022-12-07T14:48:41;5.68;;;2.20;;
41903;SDS011;27586;51.124;4.182;2022-12-07T14:51:07;6.90;;;2.30;;
41903;SDS011;27586;51.124;4.182;2022-12-07T14:53:36;3.85;;;1.70;;
41903;SDS011;27586;51.124;4.182;2022-12-07T14:56:06;4.63;;;2.10;;
41903;SDS011;27586;51.124;4.182;2022-12-07T14:58:32;5.97;;;1.90;;
41903;SDS011;27586;51.124;4.182;2022-12-07T15:00:58;4.35;;;2.05;;
41903;SDS011;27586;51.124;4.182;2022-12-07T15:03:24;6.10;;;2.80;;
41903;SDS011;27586;51.124;4.182;2022-12-07T15:05:50;5.28;;;2.30;;
41903;SDS011;27586;51.124;4.182;2022-12-07T15:08:16;4.00;;;2.10;;
41903;SDS011;27586;51.124;4.182;2022-12-07T15:10:42;4.78;;;2.00;;
41903;SDS011;27586;51.124;4.182;2022-12-07T15:13:08;3.05;;;1.58;;
41903;SDS011;27586;51.124;4.182;2022-12-07T15:15:53;2.95;;;1.90;;
41903;SDS011;27586;51.124;4.182;2022-12-07T15:18:20;5.00;;;2.50;;
41903;SDS011;27586;51.124;4.182;2022-12-07T15:20:47;5.07;;;2.30;;
41903;SDS011;27586;51.124;4.182;2022-12-07T15:23:13;5.18;;;2.40;;
41903;SDS011;27586;51.124;4.182;2022-12-07T15:25:41;4.32;;;1.92;;
41903;SDS011;27586;51.124;4.182;2022-12-07T15:28:12;3.42;;;1.92;;
41903;SDS011;27586;51.124;4.182;2022-12-07T15:30:38;3.53;;;1.90;;
41903;SDS011;27586;51.124;4.182;2022-12-07T15:33:05;5.25;;;2.05;;
41903;SDS011;27586;51.124;4.182;2022-12-07T15:35:31;2.95;;;1.90;;
41903;SDS011;27586;51.124;4.182;2022-12-07T15:37:57;6.80;;;2.10;;
41903;SDS011;27586;51.124;4.182;2022-12-07T15:40:22;3.67;;;2.08;;
41903;SDS011;27586;51.124;4.182;2022-12-07T15:42:48;5.28;;;2.35;;
41903;SDS011;27586;51.124;4.182;2022-12-07T15:45:13;4.93;;;2.25;;
41903;SDS011;27586;51.124;4.182;2022-12-07T15:47:40;4.88;;;2.42;;
41903;SDS011;27586;51.124;4.182;2022-12-07T15:50:09;7.07;;;2.55;;
41903;SDS011;27586;51.124;4.182;2022-12-07T15:52:40;6.63;;;2.33;;
41903;SDS011;27586;51.124;4.182;2022-12-07T15:55:06;5.13;;;3.38;;
41903;SDS011;27586;51.124;4.182;2022-12-07T15:57:32;5.90;;;2.75;;
41903;SDS011;27586;51.124;4.182;2022-12-07T16:00:00;5.38;;;2.28;;
41903;SDS011;27586;51.124;4.182;2022-12-07T16:02:26;4.07;;;2.50;;
41903;SDS011;27586;51.124;4.182;2022-12-07T16:04:51;5.47;;;3.40;;
41903;SDS011;27586;51.124;4.182;2022-12-07T16:07:18;4.90;;;3.38;;
41903;SDS011;27586;51.124;4.182;2022-12-07T16:09:44;6.53;;;3.28;;
41903;SDS011;27586;51.124;4.182;2022-12-07T16:12:11;7.28;;;3.42;;
41903;SDS011;27586;51.124;4.182;2022-12-07T16:14:38;8.43;;;3.65;;
41903;SDS011;27586;51.124;4.182;2022-12-07T16:17:08;8.15;;;4.25;;
41903;SDS011;27586;51.124;4.182;2022-12-07T16:19:38;6.88;;;4.20;;
41903;SDS011;27586;51.124;4.182;2022-12-07T16:22:04;8.35;;;4.40;;
41903;SDS011;27586;51.124;4.182;2022-12-07T16:24:30;7.35;;;4.40;;
41903;SDS011;27586;51.124;4.182;2022-12-07T16:26:56;7.85;;;4.65;;
41903;SDS011;27586;51.124;4.182;2022-12-07T16:29:22;10.65;;;4.80;;
41903;SDS011;27586;51.124;4.182;2022-12-07T16:31:48;6.82;;;5.00;;
41903;SDS011;27586;51.124;4.182;2022-12-07T16:34:15;7.47;;;5.60;;
41903;SDS011;27586;51.124;4.182;2022-12-07T16:36:41;7.25;;;4.82;;
41903;SDS011;27586;51.124;4.182;2022-12-07T16:39:07;9.00;;;5.13;;